Time;durP1;ratioP1;P1;durP2;ratioP2;P2;SDS_P1;SDS_P2;PMS_P1;PMS_P2;Temp;Humidity;BMP_temperature;BMP_pressure;BME280_temperature;BME280_humidity;BME280_pressure;Samples;Min_cycle;Max_cycle;Signal;HPM_P1;HPM_P2
2022/04/04 00:00:45;;;;;;;13.35;8.15;;;7.60;48.20;;;;;;5013819;28;20060;-81
2022/04/04 00:03:11;;;;;;;14.07;7.88;;;7.70;47.90;;;;;;5020591;28;20061;-82
2022/04/04 00:05:38;;;;;;;12.00;7.72;;;7.60;48.00;;;;;;5012379;28;20034;-80
2022/04/04 00:08:05;;;;;;;11.55;7.13;;;7.80;47.50;;;;;;5012416;28;20026;-82
2022/04/04 00:10:31;;;;;;;12.13;7.43;;;7.90;47.60;;;;;;5013974;28;20076;-81
2022/04/04 00:12:56;;;;;;;11.48;7.20;;;7.80;48.10;;;;;;5019031;28;20025;-82
2022/04/04 00:15:22;;;;;;;13.75;7.75;;;7.80;47.90;;;;;;5027827;28;20390;-82
2022/04/04 00:17:48;;;;;;;12.93;8.20;;;8.00;47.40;;;;;;5016260;28;20025;-80
2022/04/04 00:20:14;;;;;;;12.60;7.75;;;8.20;46.90;;;;;;5044716;28;20048;-81
2022/04/04 00:22:41;;;;;;;16.45;7.95;;;8.10;47.00;;;;;;5027602;28;20780;-82
2022/04/04 00:25:08;;;;;;;13.85;8.35;;;8.00;46.60;;;;;;5016017;28;20034;-81
2022/04/04 00:27:34;;;;;;;13.95;8.15;;;7.80;47.10;;;;;;5025952;28;20025;-81
2022/04/04 00:30:00;;;;;;;13.48;8.82;;;7.70;47.80;;;;;;5031411;28;20078;-81
2022/04/04 00:32:27;;;;;;;18.23;8.20;;;7.60;48.30;;;;;;5031913;28;20419;-81
2022/04/04 00:34:53;;;;;;;15.43;8.35;;;7.60;48.50;;;;;;5012428;28;20034;-81
2022/04/04 00:37:18;;;;;;;13.55;8.40;;;7.50;48.30;;;;;;5012189;28;20030;-79
2022/04/04 00:39:44;;;;;;;14.25;8.60;;;7.50;48.60;;;;;;5012131;28;20472;-80
2022/04/04 00:42:13;;;;;;;14.68;7.75;;;7.70;48.00;;;;;;5011914;28;20022;-80
2022/04/04 00:44:39;;;;;;;13.47;8.87;;;7.80;47.90;;;;;;5031046;28;20037;-81
2022/04/04 00:47:04;;;;;;;15.50;8.48;;;7.80;47.80;;;;;;5032128;28;20037;-78
2022/04/04 00:49:30;;;;;;;13.18;8.50;;;7.70;47.70;;;;;;5031414;28;20025;-80
2022/04/04 00:51:56;;;;;;;13.50;8.48;;;7.70;47.60;;;;;;5032256;28;20034;-81
2022/04/04 00:54:22;;;;;;;14.40;8.45;;;7.70;47.80;;;;;;5023538;28;20083;-77
2022/04/04 00:56:49;;;;;;;15.48;8.63;;;7.80;47.50;;;;;;5032350;28;20030;-77
2022/04/04 00:59:17;;;;;;;13.32;8.52;;;8.00;47.30;;;;;;5034430;28;20087;-80
2022/04/04 01:01:44;;;;;;;16.45;9.07;;;7.90;47.40;;;;;;5027337;28;20029;-77
2022/04/04 01:04:12;;;;;;;14.48;8.38;;;7.80;47.70;;;;;;5016459;28;20045;-79
2022/04/04 01:06:39;;;;;;;15.15;8.82;;;7.80;47.60;;;;;;5025806;28;20384;-80
2022/04/04 01:09:05;;;;;;;14.85;8.93;;;7.60;48.30;;;;;;5022545;28;20079;-79
2022/04/04 01:11:31;;;;;;;15.32;8.55;;;7.80;48.10;;;;;;5032758;28;20439;-79
2022/04/04 01:13:57;;;;;;;14.23;8.63;;;7.80;47.90;;;;;;5033906;28;20029;-78
2022/04/04 01:16:22;;;;;;;14.48;8.10;;;7.50;48.20;;;;;;5029054;28;20040;-82
2022/04/04 01:18:48;;;;;;;13.88;8.05;;;7.70;47.90;;;;;;5050757;28;20108;-80
2022/04/04 01:21:21;;;;;;;14.23;8.50;;;7.60;47.90;;;;;;5034027;28;20030;-78
2022/04/04 01:23:49;;;;;;;15.82;8.68;;;7.60;48.10;;;;;;5035015;28;20025;-79
2022/04/04 01:26:17;;;;;;;13.43;8.65;;;7.70;47.90;;;;;;5032215;28;20384;-79
2022/04/04 01:28:43;;;;;;;14.57;8.65;;;7.90;47.80;;;;;;5032109;28;20072;-79
2022/04/04 01:31:09;;;;;;;14.98;8.25;;;8.10;47.50;;;;;;5015913;28;20018;-78
2022/04/04 01:33:35;;;;;;;15.55;8.27;;;8.00;47.80;;;;;;5015299;28;20111;-78
2022/04/04 01:36:01;;;;;;;12.63;8.23;;;7.90;47.20;;;;;;5022965;28;20533;-77
2022/04/04 01:38:27;;;;;;;12.10;7.85;;;7.80;46.90;;;;;;5029912;28;20552;-78
2022/04/04 01:40:53;;;;;;;11.32;7.47;;;7.60;47.70;;;;;;5047184;28;20029;-76
2022/04/04 01:43:19;;;;;;;13.73;7.82;;;7.40;47.30;;;;;;5034499;28;20036;-78
2022/04/04 01:48:35;;;;;;;13.18;8.20;;;7.30;47.70;;;;;;5020541;28;20036;-78
2022/04/04 01:51:01;;;;;;;13.93;7.88;;;7.40;48.00;;;;;;5033287;28;20052;-78
2022/04/04 01:53:27;;;;;;;16.00;8.18;;;7.30;47.60;;;;;;5033587;28;20036;-78
2022/04/04 01:55:54;;;;;;;14.00;8.27;;;7.40;47.90;;;;;;5039343;28;20156;-78
2022/04/04 01:58:20;;;;;;;13.52;8.30;;;7.70;47.80;;;;;;5032636;28;20028;-78
2022/04/04 02:00:46;;;;;;;13.57;8.43;;;7.80;47.50;;;;;;5048308;28;20026;-79
2022/04/04 02:03:12;;;;;;;16.25;8.57;;;8.00;47.40;;;;;;5033048;28;20017;-79
2022/04/04 02:05:38;;;;;;;18.77;8.68;;;7.80;47.50;;;;;;5027243;28;20038;-81
2022/04/04 02:08:04;;;;;;;13.02;7.68;;;7.80;47.80;;;;;;5013555;28;20080;-78
2022/04/04 02:10:30;;;;;;;13.50;7.95;;;7.80;48.00;;;;;;5016844;28;20076;-81
2022/04/04 02:12:56;;;;;;;13.02;7.65;;;7.70;47.40;;;;;;5013357;28;20054;-79
2022/04/04 02:15:22;;;;;;;11.57;7.35;;;7.80;47.80;;;;;;5021441;28;20071;-79
2022/04/04 02:17:47;;;;;;;12.25;7.75;;;8.00;47.50;;;;;;5033440;28;20032;-79
2022/04/04 02:20:14;;;;;;;12.18;7.47;;;7.80;47.70;;;;;;5033794;28;20037;-79
2022/04/04 02:22:39;;;;;;;14.02;7.45;;;8.00;47.30;;;;;;5034320;28;20049;-79
2022/04/04 02:25:06;;;;;;;14.27;8.18;;;8.20;47.00;;;;;;5024394;28;20129;-80
2022/04/04 02:27:31;;;;;;;14.18;8.05;;;8.40;46.50;;;;;;5014517;28;20038;-79
2022/04/04 02:29:57;;;;;;;13.13;7.90;;;8.40;46.40;;;;;;5034365;28;20419;-81
2022/04/04 02:32:23;;;;;;;14.05;8.50;;;8.40;47.00;;;;;;5021328;28;20405;-80
2022/04/04 02:34:49;;;;;;;14.95;8.30;;;8.20;46.90;;;;;;5025707;28;20473;-80
2022/04/04 02:37:15;;;;;;;13.32;8.05;;;8.20;47.20;;;;;;5017010;28;20025;-80
2022/04/04 02:39:41;;;;;;;10.90;7.03;;;8.20;47.00;;;;;;5017635;28;20056;-83
2022/04/04 02:42:07;;;;;;;11.45;7.38;;;8.20;46.40;;;;;;5028679;28;20037;-79
2022/04/04 02:44:36;;;;;;;11.18;7.43;;;8.10;47.00;;;;;;5022964;28;20022;-80
2022/04/04 02:47:02;;;;;;;14.65;8.07;;;7.90;46.90;;;;;;5013153;28;20539;-79
2022/04/04 02:49:31;;;;;;;12.80;8.15;;;7.80;47.50;;;;;;5025971;28;20033;-81
2022/04/04 02:51:57;;;;;;;13.32;7.75;;;7.80;47.60;;;;;;5026892;28;20448;-80
2022/04/04 02:54:23;;;;;;;12.75;8.27;;;7.80;47.50;;;;;;5012951;28;20489;-80
2022/04/04 02:56:49;;;;;;;13.77;8.20;;;7.80;47.60;;;;;;5029766;28;20040;-79
2022/04/04 02:59:15;;;;;;;13.57;7.60;;;7.80;47.70;;;;;;5030331;28;20113;-80
2022/04/04 03:01:48;;;;;;;12.65;8.18;;;7.80;47.70;;;;;;5029079;28;20423;-80
2022/04/04 03:04:14;;;;;;;13.32;8.13;;;7.50;48.50;;;;;;5015799;28;20017;-79
2022/04/04 03:06:40;;;;;;;15.45;8.25;;;7.40;48.90;;;;;;5013737;28;20095;-80
2022/04/04 03:09:05;;;;;;;12.63;7.40;;;7.30;48.90;;;;;;5014943;28;20469;-79
2022/04/04 03:11:31;;;;;;;12.48;7.50;;;7.50;48.70;;;;;;5031471;28;20037;-79
2022/04/04 03:13:57;;;;;;;14.32;8.20;;;7.80;48.00;;;;;;5015088;28;20480;-79
2022/04/04 03:16:22;;;;;;;15.10;7.40;;;7.60;47.30;;;;;;5032654;28;20029;-79
2022/04/04 03:18:48;;;;;;;12.88;7.53;;;7.30;47.10;;;;;;5033059;28;20350;-80
2022/04/04 03:21:14;;;;;;;11.30;7.10;;;6.90;47.80;;;;;;5033087;28;20044;-79
2022/04/04 03:23:40;;;;;;;14.63;7.38;;;6.80;48.20;;;;;;5047356;28;20054;-80
2022/04/04 03:26:08;;;;;;;14.75;7.22;;;7.00;47.50;;;;;;5014191;28;20029;-79
2022/04/04 03:28:34;;;;;;;14.50;7.50;;;7.40;46.70;;;;;;5013625;28;20113;-79
2022/04/04 03:31:00;;;;;;;12.13;8.00;;;7.70;47.00;;;;;;5013234;28;20121;-79
2022/04/04 03:33:26;;;;;;;13.55;7.93;;;7.90;46.90;;;;;;5012148;28;20018;-79
2022/04/04 03:35:51;;;;;;;12.15;7.13;;;7.70;46.90;;;;;;5029318;28;20044;-80
2022/04/04 03:38:17;;;;;;;14.07;7.40;;;7.60;47.40;;;;;;5028985;28;20475;-79
2022/04/04 03:40:44;;;;;;;11.13;6.88;;;7.50;47.80;;;;;;5029623;28;20033;-80
2022/04/04 03:43:10;;;;;;;11.77;7.32;;;7.60;48.40;;;;;;5043773;28;20025;-80
2022/04/04 03:45:36;;;;;;;13.77;8.15;;;7.50;48.80;;;;;;5031498;28;20129;-78
2022/04/04 03:48:02;;;;;;;15.45;7.97;;;7.60;48.80;;;;;;5030921;28;20104;-78
2022/04/04 03:50:29;;;;;;;12.10;7.55;;;7.80;49.20;;;;;;5016210;28;20029;-83
2022/04/04 03:52:56;;;;;;;12.05;8.05;;;7.90;48.80;;;;;;5032484;28;20036;-79
2022/04/04 03:55:25;;;;;;;13.93;8.02;;;7.70;49.20;;;;;;5032688;28;20049;-80
2022/04/04 03:57:51;;;;;;;13.18;7.68;;;7.40;49.90;;;;;;5037500;28;20404;-78
2022/04/04 04:00:18;;;;;;;13.88;8.45;;;6.90;50.50;;;;;;5043698;28;20022;-80
2022/04/04 04:02:44;;;;;;;11.73;7.57;;;6.50;51.30;;;;;;5039770;28;20018;-81
2022/04/04 04:05:10;;;;;;;13.05;7.80;;;6.60;51.60;;;;;;5033137;28;20060;-79
2022/04/04 04:07:37;;;;;;;12.35;8.23;;;6.90;50.90;;;;;;5036768;28;20034;-80
2022/04/04 04:10:03;;;;;;;15.55;9.20;;;7.00;50.80;;;;;;5048985;28;20112;-79
2022/04/04 04:12:28;;;;;;;15.57;8.20;;;7.10;51.30;;;;;;5011201;28;20477;-82
2022/04/04 04:14:55;;;;;;;14.13;8.00;;;7.00;50.70;;;;;;5011472;28;20026;-81
2022/04/04 04:17:24;;;;;;;14.65;8.57;;;6.80;51.70;;;;;;5011230;28;20124;-79
2022/04/04 04:22:35;;;;;;;15.20;8.32;;;7.20;50.70;;;;;;5028108;28;20328;-79
2022/04/04 04:25:03;;;;;;;15.88;8.45;;;7.30;50.20;;;;;;5038574;28;20048;-81
2022/04/04 04:27:29;;;;;;;13.98;8.02;;;7.30;50.00;;;;;;5019308;28;20548;-81
2022/04/04 04:29:55;;;;;;;15.02;8.38;;;7.10;50.90;;;;;;5032047;28;20033;-83
2022/04/04 04:32:22;;;;;;;13.85;8.73;;;7.20;51.20;;;;;;5036703;28;20037;-81
2022/04/04 04:34:50;;;;;;;14.40;8.55;;;7.20;51.20;;;;;;5035652;28;20022;-82
2022/04/04 04:37:17;;;;;;;20.38;11.48;;;7.30;51.00;;;;;;5035626;28;20040;-81
2022/04/04 04:39:43;;;;;;;19.58;10.70;;;7.50;50.80;;;;;;5036712;28;20018;-81
2022/04/04 04:42:09;;;;;;;14.05;8.45;;;7.70;50.30;;;;;;5052043;28;20033;-82
2022/04/04 04:44:34;;;;;;;14.02;8.73;;;7.70;49.80;;;;;;5035573;28;20017;-83
2022/04/04 04:47:00;;;;;;;38.30;17.58;;;7.40;50.30;;;;;;5028672;28;20045;-83
2022/04/04 04:49:26;;;;;;;57.47;24.98;;;7.60;50.50;;;;;;5019418;28;20026;-82
2022/04/04 04:51:53;;;;;;;56.22;28.00;;;7.90;50.20;;;;;;5035057;28;20033;-83
2022/04/04 04:54:20;;;;;;;33.90;17.85;;;7.70;50.40;;;;;;4340092;28;10000726;-79
2022/04/04 04:56:46;;;;;;;21.65;11.45;;;7.60;50.60;;;;;;5032363;28;20037;-81
2022/04/04 04:59:13;;;;;;;28.85;14.30;;;7.70;50.60;;;;;;5033170;28;20033;-83
2022/04/04 05:01:39;;;;;;;19.73;11.10;;;7.90;50.30;;;;;;5034031;28;20396;-82
2022/04/04 05:04:05;;;;;;;15.27;8.30;;;8.00;49.70;;;;;;5033874;28;20492;-80
2022/04/04 05:06:31;;;;;;;14.02;9.20;;;7.90;49.80;;;;;;5034220;28;20044;-84
2022/04/04 05:08:59;;;;;;;14.38;8.88;;;7.90;50.10;;;;;;5034866;28;20627;-84
2022/04/04 05:11:28;;;;;;;16.20;9.27;;;7.90;49.70;;;;;;5034297;28;20025;-84
2022/04/04 05:13:54;;;;;;;15.02;9.05;;;7.90;50.10;;;;;;5033941;28;20025;-82
2022/04/04 05:16:20;;;;;;;17.88;9.52;;;7.90;50.20;;;;;;5033770;28;20056;-82
2022/04/04 05:18:46;;;;;;;13.80;9.10;;;8.20;49.80;;;;;;5034763;28;20476;-83
2022/04/04 05:21:12;;;;;;;14.55;8.32;;;8.30;49.50;;;;;;5034684;28;20120;-83
2022/04/04 05:23:39;;;;;;;13.98;8.27;;;8.30;49.50;;;;;;5035477;28;20100;-84
2022/04/04 05:26:05;;;;;;;14.05;7.95;;;8.10;48.90;;;;;;5034803;28;20033;-83
2022/04/04 05:28:31;;;;;;;12.45;7.32;;;8.20;49.00;;;;;;5034307;28;20547;-80
2022/04/04 05:30:58;;;;;;;12.93;8.02;;;8.10;49.10;;;;;;5032701;28;20032;-79
2022/04/04 05:33:24;;;;;;;12.50;7.25;;;8.20;48.70;;;;;;5033814;28;20025;-82
2022/04/04 05:35:50;;;;;;;14.20;8.30;;;8.20;48.80;;;;;;5033368;28;20026;-78
2022/04/04 05:38:16;;;;;;;10.93;7.28;;;8.50;48.40;;;;;;5033397;28;20032;-81
2022/04/04 05:40:41;;;;;;;11.15;7.53;;;8.70;47.70;;;;;;5034468;28;20025;-84
2022/04/04 05:43:07;;;;;;;13.55;7.90;;;8.60;47.40;;;;;;5034733;28;20026;-84
2022/04/04 05:45:35;;;;;;;11.43;7.20;;;8.30;48.30;;;;;;5034412;28;20438;-84
2022/04/04 05:48:02;;;;;;;12.15;7.13;;;8.40;47.70;;;;;;5033165;28;20095;-83
2022/04/04 05:50:28;;;;;;;14.05;8.25;;;8.60;47.70;;;;;;5032152;28;20472;-77
2022/04/04 05:52:54;;;;;;;12.30;7.35;;;8.80;47.40;;;;;;5033334;28;20037;-84
2022/04/04 05:55:19;;;;;;;15.00;8.15;;;8.90;47.10;;;;;;5033266;28;20025;-79
2022/04/04 05:57:45;;;;;;;11.75;7.60;;;9.00;46.90;;;;;;5033409;28;20018;-84
2022/04/04 06:00:13;;;;;;;12.52;7.40;;;9.10;46.60;;;;;;5033934;28;20033;-85
2022/04/04 06:02:41;;;;;;;13.30;7.85;;;9.10;46.70;;;;;;5033472;28;20026;-84
2022/04/04 06:05:08;;;;;;;12.80;8.63;;;9.20;46.70;;;;;;5034651;28;20040;-85
2022/04/04 06:07:34;;;;;;;14.85;8.90;;;9.00;46.40;;;;;;5032292;28;20053;-83
2022/04/04 06:10:00;;;;;;;13.93;8.20;;;8.50;46.40;;;;;;5033567;28;20033;-84
2022/04/04 06:12:26;;;;;;;13.98;8.85;;;8.70;47.10;;;;;;5033406;28;20022;-85
2022/04/04 06:14:51;;;;;;;15.80;9.30;;;9.00;46.90;;;;;;5031747;28;20037;-78
2022/04/04 06:17:18;;;;;;;15.43;9.43;;;9.00;46.10;;;;;;5032124;28;20499;-76
2022/04/04 06:19:44;;;;;;;14.85;9.55;;;9.20;45.90;;;;;;5031436;28;20113;-82
2022/04/04 06:22:10;;;;;;;17.02;9.60;;;9.30;45.90;;;;;;5032760;28;20108;-81
2022/04/04 06:24:35;;;;;;;17.65;10.73;;;9.60;45.20;;;;;;5031782;28;20033;-83
2022/04/04 06:27:02;;;;;;;16.30;10.05;;;9.40;45.10;;;;;;5031959;28;20096;-78
2022/04/04 06:29:28;;;;;;;16.25;10.63;;;9.00;45.60;;;;;;5032879;28;20182;-76
2022/04/04 06:31:55;;;;;;;17.60;10.60;;;9.30;45.40;;;;;;5031526;28;20518;-83
2022/04/04 06:34:20;;;;;;;16.80;10.18;;;9.40;44.70;;;;;;5031754;28;20441;-85
2022/04/04 06:36:47;;;;;;;17.52;10.57;;;9.50;45.30;;;;;;5032800;28;20064;-82
2022/04/04 06:39:13;;;;;;;17.02;11.00;;;9.20;45.20;;;;;;5032269;28;20112;-85
2022/04/04 06:41:39;;;;;;;15.43;9.93;;;9.20;45.50;;;;;;5032981;28;20033;-87
2022/04/04 06:44:05;;;;;;;19.98;10.75;;;9.10;45.60;;;;;;5033272;28;20055;-86
2022/04/04 06:46:31;;;;;;;14.35;9.82;;;9.20;45.80;;;;;;5034088;28;20496;-85
2022/04/04 06:48:58;;;;;;;18.52;10.90;;;9.50;45.10;;;;;;5032273;28;20022;-84
2022/04/04 06:51:24;;;;;;;17.92;11.00;;;9.90;45.30;;;;;;5031794;28;20100;-85
2022/04/04 06:53:50;;;;;;;18.48;10.90;;;10.00;45.00;;;;;;5032312;28;20361;-85
2022/04/04 06:56:15;;;;;;;17.08;10.38;;;9.80;44.70;;;;;;5032768;28;20025;-81
2022/04/04 06:58:41;;;;;;;18.42;10.77;;;9.80;45.00;;;;;;5033895;28;20036;-78
2022/04/04 07:01:07;;;;;;;15.30;10.25;;;9.80;45.10;;;;;;5033767;28;20115;-79
2022/04/04 07:03:33;;;;;;;16.10;10.45;;;9.90;44.60;;;;;;5032213;28;20135;-86
2022/04/04 07:05:59;;;;;;;18.30;10.30;;;9.80;44.20;;;;;;5032158;28;20041;-87
2022/04/04 07:08:24;;;;;;;16.27;10.23;;;9.70;44.80;;;;;;5031174;28;20028;-82
2022/04/04 07:10:51;;;;;;;16.00;10.07;;;9.70;44.00;;;;;;5013542;28;20033;-78
2022/04/04 07:13:18;;;;;;;14.82;9.25;;;10.30;44.70;;;;;;5011885;28;20022;-76
2022/04/04 07:15:43;;;;;;;16.45;10.00;;;10.30;42.50;;;;;;5011283;28;20457;-86
2022/04/04 07:18:10;;;;;;;15.00;9.98;;;10.70;43.00;;;;;;5011038;28;20480;-80
2022/04/04 07:20:38;;;;;;;15.27;10.07;;;11.60;41.90;;;;;;5010043;28;20040;-88
2022/04/04 07:23:05;;;;;;;14.27;9.73;;;13.40;40.30;;;;;;5010112;28;20513;-77
2022/04/04 07:25:31;;;;;;;14.88;9.50;;;15.40;38.40;;;;;;5010145;28;20042;-80
2022/04/04 07:27:57;;;;;;;14.13;8.98;;;16.80;36.90;;;;;;5010882;28;20022;-79
2022/04/04 07:30:23;;;;;;;13.90;9.27;;;16.60;36.50;;;;;;5009737;28;20036;-79
2022/04/04 07:32:50;;;;;;;13.63;9.45;;;17.30;36.50;;;;;;5009900;28;20041;-84
2022/04/04 07:35:18;;;;;;;15.50;10.30;;;18.40;35.70;;;;;;5011225;28;20040;-83
2022/04/04 07:37:47;;;;;;;13.40;8.88;;;18.20;34.50;;;;;;5010099;28;20037;-84
2022/04/04 07:40:14;;;;;;;14.32;9.05;;;18.70;34.60;;;;;;5009911;28;20026;-84
2022/04/04 07:42:43;;;;;;;13.55;9.93;;;18.40;34.30;;;;;;5009620;28;20121;-85
2022/04/04 07:45:10;;;;;;;13.52;9.05;;;17.60;34.50;;;;;;5009851;28;20140;-83
2022/04/04 07:47:36;;;;;;;15.60;10.48;;;17.30;34.70;;;;;;5009821;28;20119;-84
2022/04/04 07:50:04;;;;;;;15.23;9.98;;;16.90;35.20;;;;;;5012391;28;20026;-80
2022/04/04 07:52:30;;;;;;;14.45;9.00;;;16.10;35.70;;;;;;5024925;28;20060;-77
2022/04/04 07:54:55;;;;;;;11.80;9.07;;;15.70;35.90;;;;;;4677885;28;9999949;-79
2022/04/04 07:57:21;;;;;;;14.55;8.93;;;15.60;37.40;;;;;;5013505;28;20033;-85
2022/04/04 07:59:50;;;;;;;12.02;7.97;;;16.70;35.60;;;;;;5011709;28;20096;-80
2022/04/04 08:02:16;;;;;;;11.80;7.80;;;17.40;35.30;;;;;;5014243;28;20026;-81
2022/04/04 08:04:42;;;;;;;12.25;8.18;;;18.50;33.60;;;;;;5015443;28;20392;-84
2022/04/04 08:07:08;;;;;;;11.90;8.50;;;18.60;33.20;;;;;;5015310;28;20038;-83
2022/04/04 08:09:33;;;;;;;11.75;8.13;;;19.70;33.50;;;;;;5016250;28;20053;-81
2022/04/04 08:11:59;;;;;;;11.32;8.23;;;19.90;33.20;;;;;;5017173;28;20026;-81
2022/04/04 08:14:25;;;;;;;11.85;8.18;;;19.30;33.30;;;;;;5023683;28;20109;-83
2022/04/04 08:16:51;;;;;;;12.20;7.75;;;18.90;32.90;;;;;;5027828;28;20125;-85
2022/04/04 08:19:18;;;;;;;11.52;8.00;;;18.70;33.60;;;;;;5034370;28;20030;-81
2022/04/04 08:21:44;;;;;;;10.13;7.15;;;18.60;33.60;;;;;;5035838;28;20033;-84
2022/04/04 08:24:11;;;;;;;12.80;7.65;;;18.40;33.00;;;;;;5035970;28;20055;-86
2022/04/04 08:26:37;;;;;;;10.98;7.50;;;18.50;33.30;;;;;;5034950;28;20383;-81
2022/04/04 08:29:03;;;;;;;9.40;6.88;;;18.90;33.20;;;;;;5034513;28;20029;-81
2022/04/04 08:31:29;;;;;;;9.95;6.70;;;18.80;31.60;;;;;;5035560;28;20059;-87
2022/04/04 08:33:54;;;;;;;10.82;7.15;;;18.30;32.60;;;;;;5035906;28;20037;-85
2022/04/04 08:36:20;;;;;;;10.90;6.60;;;18.20;33.60;;;;;;5034508;28;20583;-85
2022/04/04 08:38:46;;;;;;;8.43;6.50;;;18.40;33.60;;;;;;5034421;28;20025;-82
2022/04/04 08:41:12;;;;;;;11.45;7.38;;;19.20;32.60;;;;;;5034721;28;20068;-84
2022/04/04 08:43:40;;;;;;;9.98;6.63;;;19.20;31.90;;;;;;5021016;28;20049;-80
2022/04/04 08:46:07;;;;;;;9.88;6.30;;;19.10;32.40;;;;;;5014441;28;20041;-84
2022/04/04 08:48:35;;;;;;;8.23;6.13;;;18.40;33.70;;;;;;5015895;28;20050;-85
2022/04/04 08:51:01;;;;;;;8.65;6.10;;;18.20;31.30;;;;;;5019981;28;20392;-82
2022/04/04 08:53:28;;;;;;;11.98;6.25;;;18.90;32.90;;;;;;5024042;28;20040;-82
2022/04/04 08:55:57;;;;;;;10.13;5.47;;;19.00;32.50;;;;;;5039345;28;20021;-81
2022/04/04 08:58:26;;;;;;;8.02;5.43;;;19.70;31.30;;;;;;5032836;28;20064;-84
2022/04/04 09:00:52;;;;;;;10.05;5.70;;;19.90;31.60;;;;;;5028768;28;20029;-82
2022/04/04 09:03:23;;;;;;;7.15;5.07;;;20.00;32.40;;;;;;5015468;28;20041;-82
2022/04/04 09:05:49;;;;;;;;;;;20.90;31.20;;;;;;5017911;28;20053;-84
2022/04/04 09:08:15;;;;;;;8.57;4.95;;;21.00;30.40;;;;;;5019916;28;20279;-82
2022/04/04 09:10:47;;;;;;;7.70;5.38;;;20.10;29.80;;;;;;5027533;28;20033;-80
2022/04/04 09:13:15;;;;;;;10.85;6.28;;;19.50;30.90;;;;;;4678821;28;10000520;-85
2022/04/04 09:16:00;;;;;;;8.35;5.70;;;19.30;32.00;;;;;;5040126;28;20060;-86
2022/04/04 09:18:41;;;;;;;6.55;5.00;;;19.50;31.30;;;;;;5029954;28;20489;-83
2022/04/04 09:21:12;;;;;;;;;;;19.50;30.70;;;;;;5022328;28;20022;-83
2022/04/04 09:23:47;;;;;;;7.80;5.80;;;19.60;31.00;;;;;;5024030;28;19905;-81
2022/04/04 09:26:35;;;;;;;11.88;5.70;;;19.40;31.70;;;;;;5030034;28;20389;-83
2022/04/04 09:29:14;;;;;;;9.98;5.80;;;19.90;31.50;;;;;;5029235;28;20038;-82
2022/04/04 09:31:54;;;;;;;9.45;5.80;;;20.20;32.20;;;;;;5023352;28;20018;-83
2022/04/04 09:34:20;;;;;;;9.00;5.82;;;20.30;32.20;;;;;;5022283;28;20026;-82
2022/04/04 09:36:47;;;;;;;7.57;6.05;;;20.80;31.60;;;;;;4677239;28;9999839;-80
2022/04/04 09:39:14;;;;;;;8.32;5.97;;;20.60;31.00;;;;;;5015105;28;20031;-82
2022/04/04 09:41:40;;;;;;;9.63;5.82;;;21.00;31.80;;;;;;5013784;28;20392;-79
2022/04/04 09:44:08;;;;;;;10.07;5.75;;;21.60;31.60;;;;;;5014979;28;20479;-81
2022/04/04 09:46:38;;;;;;;7.55;5.60;;;21.30;30.50;;;;;;5013573;28;20053;-80
2022/04/04 09:49:05;;;;;;;9.55;6.22;;;20.60;31.90;;;;;;5012895;28;20022;-81
2022/04/04 09:51:42;;;;;;;8.68;5.90;;;20.80;31.20;;;;;;5012880;28;20041;-83
2022/04/04 09:54:12;;;;;;;8.10;5.85;;;20.60;31.20;;;;;;4675109;28;10000511;-83
2022/04/04 09:56:38;;;;;;;9.18;6.05;;;20.60;31.40;;;;;;5029910;28;20037;-79
2022/04/04 09:59:04;;;;;;;6.88;5.65;;;21.40;32.80;;;;;;5016209;28;20022;-82
2022/04/04 10:01:32;;;;;;;10.27;6.25;;;22.00;31.80;;;;;;5014787;28;20399;-83
2022/04/04 10:04:00;;;;;;;10.77;7.93;;;22.80;31.20;;;;;;5033204;28;20373;-81
2022/04/04 10:06:29;;;;;;;7.63;5.70;;;22.60;30.60;;;;;;5034785;28;20065;-81
2022/04/04 10:09:00;;;;;;;7.90;5.70;;;22.50;31.80;;;;;;5014798;28;20022;-80
2022/04/04 10:11:27;;;;;;;9.82;6.15;;;22.90;30.80;;;;;;5014088;28;20065;-82
2022/04/04 10:13:54;;;;;;;8.43;6.05;;;21.30;30.00;;;;;;5014083;28;20026;-81
2022/04/04 10:16:22;;;;;;;8.70;5.60;;;21.90;31.90;;;;;;5014345;28;20125;-81
2022/04/04 10:18:49;;;;;;;6.70;5.00;;;22.80;30.20;;;;;;5014395;28;20531;-82
2022/04/04 10:21:15;;;;;;;6.28;5.03;;;22.70;30.80;;;;;;5014025;28;20028;-82
2022/04/04 10:23:41;;;;;;;6.50;4.95;;;22.60;30.00;;;;;;5015397;28;20025;-83
2022/04/04 10:26:08;;;;;;;8.40;5.10;;;22.10;30.10;;;;;;5012891;28;20485;-82
2022/04/04 10:28:36;;;;;;;6.10;4.63;;;22.50;29.80;;;;;;5013735;28;20025;-83
2022/04/04 10:31:13;;;;;;;7.53;4.90;;;23.10;29.10;;;;;;5014636;28;20054;-82
2022/04/04 10:33:39;;;;;;;10.55;4.95;;;22.20;30.50;;;;;;5015452;28;20105;-83
2022/04/04 10:36:13;;;;;;;6.80;5.13;;;20.00;31.20;;;;;;5014801;28;20109;-82
2022/04/04 10:38:44;;;;;;;6.88;4.72;;;20.50;31.80;;;;;;5013607;28;20362;-81
2022/04/04 10:41:13;;;;;;;6.22;4.80;;;21.40;31.60;;;;;;5014790;28;20033;-83
2022/04/04 10:43:43;;;;;;;7.25;4.70;;;22.10;31.80;;;;;;5013341;28;20085;-81
2022/04/04 10:46:10;;;;;;;;;;;23.40;32.20;;;;;;5013814;28;20054;-80
2022/04/04 10:48:41;;;;;;;6.32;5.03;;;23.90;30.80;;;;;;5013839;28;19931;-82
2022/04/04 10:51:12;;;;;;;6.13;4.72;;;23.50;29.60;;;;;;5014517;28;20026;-81
2022/04/04 10:53:47;;;;;;;8.20;5.28;;;23.20;30.80;;;;;;5014485;28;20018;-81
2022/04/04 10:56:19;;;;;;;6.47;4.85;;;24.40;30.50;;;;;;5013099;28;20029;-79
2022/04/04 10:58:45;;;;;;;9.15;5.60;;;24.30;29.70;;;;;;5014167;28;20025;-81
2022/04/04 11:01:16;;;;;;;6.57;5.07;;;23.80;30.50;;;;;;5013323;28;20125;-81
2022/04/04 11:03:56;;;;;;;8.52;5.47;;;23.20;30.40;;;;;;5013066;28;20117;-80
2022/04/04 11:09:36;;;;;;;7.45;5.22;;;20.40;32.30;;;;;;5014387;28;20400;-86
2022/04/04 11:12:08;;;;;;;6.85;5.03;;;18.20;32.60;;;;;;5013106;28;20037;-82
2022/04/04 11:14:39;;;;;;;9.32;5.10;;;17.10;33.60;;;;;;5013064;28;20022;-83
2022/04/04 11:20:00;;;;;;;6.85;4.75;;;16.10;34.20;;;;;;5013832;28;20084;-82
2022/04/04 11:22:28;;;;;;;6.80;4.78;;;14.80;35.90;;;;;;5012700;28;20389;-82
2022/04/04 11:25:05;;;;;;;7.05;5.10;;;14.20;36.60;;;;;;5012924;28;20029;-82
2022/04/04 11:27:35;;;;;;;10.27;6.32;;;14.60;37.80;;;;;;5012728;28;20124;-83
2022/04/04 11:30:08;;;;;;;14.65;8.63;;;14.50;35.80;;;;;;5013057;28;20437;-83
2022/04/04 11:32:38;;;;;;;9.32;6.20;;;14.40;36.60;;;;;;5012781;28;20064;-82
2022/04/04 11:35:09;;;;;;;7.60;5.32;;;14.70;36.60;;;;;;5012769;28;20121;-83
2022/04/04 11:37:55;;;;;;;8.23;5.38;;;14.60;36.40;;;;;;5012350;28;20037;-83
2022/04/04 11:40:33;;;;;;;10.90;7.50;;;14.80;35.70;;;;;;5012949;28;20484;-82
2022/04/04 11:42:59;;;;;;;12.05;8.70;;;15.10;36.70;;;;;;5013858;28;20072;-84
2022/04/04 11:45:27;;;;;;;7.00;5.72;;;15.10;36.70;;;;;;5013477;28;20077;-82
2022/04/04 11:48:02;;;;;;;10.93;5.95;;;15.10;36.90;;;;;;5012852;28;20404;-81
2022/04/04 11:50:30;;;;;;;9.02;6.40;;;15.30;38.00;;;;;;5012499;28;20404;-82
2022/04/04 11:53:02;;;;;;;9.65;6.90;;;14.90;38.90;;;;;;3983358;28;10000566;-82
2022/04/04 11:55:30;;;;;;;9.68;8.25;;;15.40;38.40;;;;;;5032359;28;20075;-80
2022/04/04 11:57:58;;;;;;;8.77;6.50;;;15.10;38.10;;;;;;5033269;28;20101;-83
2022/04/04 12:00:27;;;;;;;8.43;6.95;;;15.10;38.90;;;;;;5033091;28;20065;-83
2022/04/04 12:02:53;;;;;;;9.27;6.88;;;14.90;37.90;;;;;;5032066;28;20561;-83
2022/04/04 12:05:23;;;;;;;8.88;7.40;;;15.00;37.70;;;;;;5033233;28;20036;-82
2022/04/04 12:07:52;;;;;;;9.45;6.95;;;15.20;38.70;;;;;;5033280;28;20048;-83
2022/04/04 12:10:31;;;;;;;7.93;6.70;;;15.00;37.30;;;;;;5033491;28;20033;-83
2022/04/04 12:13:00;;;;;;;10.02;7.45;;;14.60;38.10;;;;;;5032333;28;20068;-83
2022/04/04 12:15:29;;;;;;;10.07;8.07;;;14.80;37.90;;;;;;5033693;28;20022;-82
2022/04/04 12:17:55;;;;;;;10.38;7.85;;;14.70;40.00;;;;;;5032154;28;20473;-82
2022/04/04 12:20:21;;;;;;;9.48;7.80;;;15.40;39.60;;;;;;5031984;28;20030;-82
2022/04/04 12:25:32;;;;;;;10.32;7.50;;;15.80;37.30;;;;;;5033134;28;20040;-80
2022/04/04 12:27:59;;;;;;;25.88;14.63;;;15.90;37.60;;;;;;5031638;28;20037;-82
2022/04/04 12:30:37;;;;;;;10.65;8.38;;;16.30;38.50;;;;;;5033088;28;20497;-82
2022/04/04 12:33:12;;;;;;;10.52;7.85;;;16.30;37.50;;;;;;4683599;28;10000319;-84
2022/04/04 12:35:48;;;;;;;14.13;9.98;;;16.10;38.20;;;;;;5029951;28;20032;-80
2022/04/04 12:38:37;;;;;;;17.63;12.60;;;15.90;38.10;;;;;;5030598;28;20025;-82
2022/04/04 12:41:05;;;;;;;10.73;7.78;;;15.70;38.40;;;;;;5030365;28;20025;-81
2022/04/04 12:43:31;;;;;;;10.13;8.13;;;15.50;38.20;;;;;;5029705;28;20025;-82
2022/04/04 12:45:57;;;;;;;13.63;8.68;;;15.00;39.10;;;;;;5031603;28;20407;-81
2022/04/04 12:48:36;;;;;;;11.00;8.18;;;15.10;38.70;;;;;;5031508;28;20025;-82
2022/04/04 12:51:02;;;;;;;11.90;8.68;;;15.00;39.40;;;;;;5033927;28;20480;-80
2022/04/04 12:53:28;;;;;;;13.57;10.93;;;15.20;39.50;;;;;;5033611;28;20572;-81
2022/04/04 12:56:06;;;;;;;11.88;8.75;;;14.90;39.00;;;;;;5034701;28;20468;-82
2022/04/04 12:58:34;;;;;;;11.88;9.20;;;14.80;39.40;;;;;;5034234;28;20049;-82